createdAt,value
2022-08-03T00:00:26.973Z,3.03
2022-08-03T00:02:54.015Z,3.58
2022-08-03T00:05:21.039Z,3.85
2022-08-03T00:07:48.515Z,2.03
2022-08-03T00:10:16.279Z,2.50
2022-08-03T00:12:42.958Z,2.63
2022-08-03T00:15:15.059Z,3.42
2022-08-03T00:17:52.518Z,3.33
2022-08-03T00:20:20.014Z,3.30
2022-08-03T00:22:46.691Z,2.15
2022-08-03T00:25:13.788Z,3.15
2022-08-03T00:27:40.395Z,2.72
2022-08-03T00:30:07.749Z,2.75
2022-08-03T00:32:34.363Z,2.90
2022-08-03T00:35:01.032Z,2.60
2022-08-03T00:37:41.617Z,2.75
2022-08-03T00:40:11.786Z,2.30
2022-08-03T00:42:50.638Z,2.42
2022-08-03T00:45:18.676Z,2.08
2022-08-03T00:47:45.844Z,3.03
2022-08-03T00:50:12.961Z,3.03
2022-08-03T00:52:40.321Z,2.65
2022-08-03T00:55:07.301Z,3.97
2022-08-03T00:57:34.067Z,3.90
2022-08-03T01:00:01.211Z,3.53
2022-08-03T01:02:29.427Z,4.38
2022-08-03T01:04:56.593Z,3.15
2022-08-03T01:07:31.737Z,3.42
2022-08-03T01:10:06.438Z,3.63
2022-08-03T01:12:44.090Z,3.25
2022-08-03T01:15:21.670Z,2.95
2022-08-03T01:17:56.311Z,3.35
2022-08-03T01:20:25.152Z,2.45
2022-08-03T01:22:54.822Z,2.03
2022-08-03T01:29:11.257Z,2.80
2022-08-03T01:33:00.127Z,2.92
2022-08-03T01:34:41.295Z,2.90
2022-08-03T01:37:11.023Z,3.08
2022-08-03T01:39:41.115Z,2.70
2022-08-03T01:42:11.680Z,4.72
2022-08-03T01:44:41.797Z,3.13
2022-08-03T01:47:10.033Z,2.85
2022-08-03T01:49:43.411Z,3.08
2022-08-03T01:52:11.588Z,3.53
2022-08-03T01:54:43.318Z,3.50
2022-08-03T01:57:10.843Z,2.58
2022-08-03T01:59:39.481Z,2.97
2022-08-03T02:02:28.277Z,2.28
2022-08-03T02:04:57.767Z,2.90
2022-08-03T02:07:26.937Z,3.10
2022-08-03T02:09:55.628Z,4.25
2022-08-03T02:12:25.142Z,3.00
2022-08-03T02:14:52.049Z,3.00
2022-08-03T02:17:39.603Z,2.33
2022-08-03T02:20:08.866Z,2.88
2022-08-03T02:22:39.225Z,3.78
2022-08-03T02:25:08.532Z,3.90
2022-08-03T02:27:43.184Z,3.08
2022-08-03T02:30:12.487Z,3.50
2022-08-03T02:32:41.082Z,3.65
2022-08-03T02:35:12.658Z,2.38
2022-08-03T02:37:49.861Z,3.63
2022-08-03T02:40:19.032Z,2.63
2022-08-03T02:42:47.269Z,3.38
2022-08-03T02:45:16.811Z,3.33
2022-08-03T02:47:54.495Z,2.90
2022-08-03T02:50:23.248Z,3.28
2022-08-03T02:52:51.353Z,4.13
2022-08-03T02:55:21.708Z,5.40
2022-08-03T02:57:49.978Z,2.55
2022-08-03T03:00:19.436Z,2.97
2022-08-03T03:02:56.973Z,2.58
2022-08-03T03:05:54.961Z,3.83
2022-08-03T03:08:18.707Z,3.65
2022-08-03T03:10:49.011Z,3.10
2022-08-03T03:13:22.630Z,3.28
2022-08-03T03:15:50.928Z,4.60
2022-08-03T03:18:22.222Z,3.70
2022-08-03T03:20:51.625Z,3.10
2022-08-03T03:23:20.324Z,3.38
2022-08-03T03:25:47.077Z,2.35
2022-08-03T03:28:14.625Z,3.28
2022-08-03T03:30:41.999Z,3.80
2022-08-03T03:33:08.884Z,4.45
2022-08-03T03:35:38.818Z,3.67
2022-08-03T03:38:06.906Z,2.70
2022-08-03T03:40:35.732Z,3.03
2022-08-03T03:43:03.298Z,3.20
2022-08-03T03:45:31.766Z,3.63
2022-08-03T03:48:00.551Z,2.95
2022-08-03T03:50:28.222Z,2.53
2022-08-03T03:52:54.902Z,2.85
2022-08-03T03:55:21.687Z,5.40
2022-08-03T03:57:48.342Z,2.33
2022-08-03T04:00:17.185Z,3.78
2022-08-03T04:02:44.821Z,2.63
2022-08-03T04:05:30.622Z,2.50
2022-08-03T04:08:24.374Z,2.63
2022-08-03T04:13:49.264Z,3.80
2022-08-03T04:16:19.775Z,3.20
2022-08-03T04:18:50.572Z,2.60
2022-08-03T04:21:21.520Z,4.20
2022-08-03T04:23:51.407Z,3.17
2022-08-03T04:26:21.595Z,3.20
2022-08-03T04:28:50.531Z,3.17
2022-08-03T04:31:20.531Z,2.88
2022-08-03T04:33:48.613Z,3.70
2022-08-03T04:36:20.984Z,3.60
2022-08-03T04:38:57.251Z,3.38
2022-08-03T04:41:26.615Z,2.50
2022-08-03T04:43:56.227Z,2.83
2022-08-03T04:46:26.327Z,3.38
2022-08-03T04:48:53.714Z,3.70
2022-08-03T04:51:21.171Z,3.28
2022-08-03T04:53:48.131Z,2.95
2022-08-03T04:56:14.807Z,2.92
2022-08-03T04:58:41.638Z,2.83
2022-08-03T05:01:08.362Z,2.92
2022-08-03T05:03:35.150Z,4.03
2022-08-03T05:06:11.077Z,4.30
2022-08-03T05:08:45.996Z,3.13
2022-08-03T05:11:13.366Z,3.50
2022-08-03T05:13:40.019Z,3.53
2022-08-03T05:16:06.662Z,3.63
2022-08-03T05:18:33.739Z,3.58
2022-08-03T05:21:00.399Z,4.47
2022-08-03T05:23:27.226Z,3.25
2022-08-03T05:25:53.862Z,3.45
2022-08-03T05:28:20.604Z,3.42
2022-08-03T05:30:47.270Z,3.60
2022-08-03T05:33:13.945Z,4.35
2022-08-03T05:35:57.366Z,4.03
2022-08-03T05:38:28.736Z,4.40
2022-08-03T05:41:22.294Z,3.63
2022-08-03T05:43:47.907Z,4.05
2022-08-03T05:46:14.645Z,4.63
2022-08-03T05:48:42.466Z,3.40
2022-08-03T05:51:11.850Z,3.90
2022-08-03T05:53:39.669Z,5.43
2022-08-03T05:56:13.714Z,4.45
2022-08-03T05:58:46.403Z,4.50
2022-08-03T06:01:13.398Z,4.00
2022-08-03T06:03:40.249Z,3.95
2022-08-03T06:06:06.977Z,5.80
2022-08-03T06:08:34.469Z,3.70
2022-08-03T06:11:01.200Z,3.45
2022-08-03T06:13:27.879Z,3.42
2022-08-03T06:15:54.537Z,2.35
2022-08-03T06:18:21.325Z,3.95
2022-08-03T06:20:49.441Z,3.05
2022-08-03T06:23:18.525Z,5.30
2022-08-03T06:25:45.986Z,2.55
2022-08-03T06:28:42.371Z,3.67
2022-08-03T06:31:01.512Z,4.78
2022-08-03T06:34:30.651Z,3.10
2022-08-03T06:36:15.460Z,3.65
2022-08-03T06:38:42.208Z,5.03
2022-08-03T06:41:08.875Z,2.67
2022-08-03T06:44:02.596Z,3.83
2022-08-03T06:46:25.901Z,3.72
2022-08-03T06:48:52.998Z,3.83
2022-08-03T06:51:19.862Z,3.97
2022-08-03T06:53:46.540Z,4.30
2022-08-03T06:56:13.438Z,3.15
2022-08-03T06:58:40.211Z,3.42
2022-08-03T07:01:06.919Z,4.75
2022-08-03T07:03:33.663Z,4.00
2022-08-03T07:06:00.332Z,5.53
2022-08-03T07:08:33.495Z,5.35
2022-08-03T07:11:01.130Z,3.35
2022-08-03T07:13:27.838Z,5.10
2022-08-03T07:15:56.072Z,6.38
2022-08-03T07:18:29.158Z,5.03
2022-08-03T07:20:59.787Z,5.32
2022-08-03T07:23:26.476Z,5.40
2022-08-03T07:25:53.325Z,5.68
2022-08-03T07:28:20.398Z,6.03
2022-08-03T07:30:47.273Z,4.60
2022-08-03T07:33:15.193Z,4.72
2022-08-03T07:35:42.529Z,8.40
2022-08-03T07:38:09.236Z,8.18
2022-08-03T07:40:36.032Z,14.45
2022-08-03T07:43:03.615Z,9.50
2022-08-03T07:45:31.405Z,7.47
2022-08-03T07:47:58.316Z,8.48
2022-08-03T07:50:25.020Z,11.20
2022-08-03T07:52:53.142Z,11.48
2022-08-03T07:55:24.347Z,9.20
2022-08-03T07:58:09.965Z,11.25
2022-08-03T08:00:36.979Z,10.52
2022-08-03T08:03:04.848Z,11.82
2022-08-03T08:05:31.768Z,7.68
2022-08-03T08:07:58.552Z,8.02
2022-08-03T08:10:25.392Z,9.57
2022-08-03T08:12:52.490Z,11.43
2022-08-03T08:15:19.191Z,9.63
2022-08-03T08:17:54.075Z,8.25
2022-08-03T08:20:30.849Z,7.75
2022-08-03T08:23:13.919Z,6.90
2022-08-03T08:25:52.226Z,6.73
2022-08-03T08:28:32.482Z,6.82
2022-08-03T08:31:00.653Z,5.53
2022-08-03T08:33:37.361Z,7.78
2022-08-03T08:36:15.626Z,5.45
2022-08-03T08:38:44.687Z,5.65
2022-08-03T08:41:13.122Z,7.45
2022-08-03T08:43:40.090Z,5.18
2022-08-03T08:46:08.551Z,5.30
2022-08-03T08:48:36.444Z,4.78
2022-08-03T08:51:03.399Z,4.45
2022-08-03T08:53:32.858Z,4.88
2022-08-03T08:56:02.302Z,7.03
2022-08-03T08:58:33.034Z,5.18
2022-08-03T09:00:59.884Z,4.22
2022-08-03T09:03:30.025Z,4.28
2022-08-03T09:05:59.354Z,4.50
2022-08-03T09:08:26.430Z,4.40
2022-08-03T09:10:53.066Z,3.35
2022-08-03T09:13:19.760Z,4.70
2022-08-03T09:15:57.171Z,3.97
2022-08-03T09:18:32.809Z,3.90
2022-08-03T09:21:34.146Z,5.80
2022-08-03T09:24:05.865Z,3.63
2022-08-03T09:26:38.092Z,3.30
2022-08-03T09:29:14.531Z,3.63
2022-08-03T09:31:46.941Z,3.67
2022-08-03T09:34:18.260Z,5.77
2022-08-03T09:36:47.621Z,6.90
2022-08-03T09:39:41.560Z,4.50
2022-08-03T09:42:11.647Z,3.60
2022-08-03T09:44:44.423Z,2.67
2022-08-03T09:47:12.734Z,4.68
2022-08-03T09:49:44.435Z,3.65
2022-08-03T09:52:38.015Z,2.50
2022-08-03T09:56:31.652Z,3.20
2022-08-03T09:58:06.489Z,3.08
2022-08-03T10:00:33.131Z,2.70
2022-08-03T10:03:05.856Z,3.65
2022-08-03T10:05:33.271Z,3.25
2022-08-03T10:07:59.914Z,2.95
2022-08-03T10:10:31.160Z,5.15
2022-08-03T10:13:00.326Z,3.25
2022-08-03T10:16:23.556Z,3.78
2022-08-03T10:18:14.522Z,2.65
2022-08-03T10:20:49.831Z,4.18
2022-08-03T10:23:18.207Z,2.97
2022-08-03T10:25:48.473Z,3.75
2022-08-03T10:28:18.425Z,3.58
2022-08-03T10:30:50.335Z,3.72
2022-08-03T10:33:52.044Z,4.15
2022-08-03T10:36:15.013Z,3.05
2022-08-03T10:38:47.368Z,2.97
2022-08-03T10:41:16.896Z,3.25
2022-08-03T10:43:50.595Z,2.67
2022-08-03T10:46:21.374Z,2.45
2022-08-03T10:48:51.755Z,3.20
2022-08-03T10:51:20.146Z,2.22
2022-08-03T10:53:55.074Z,2.33
2022-08-03T10:56:53.472Z,2.45
2022-08-03T10:59:46.264Z,2.55
2022-08-03T11:02:14.384Z,2.35
2022-08-03T11:04:41.945Z,2.35
2022-08-03T11:07:24.544Z,2.30
2022-08-03T11:12:30.437Z,4.38
2022-08-03T11:15:04.943Z,2.45
2022-08-03T11:17:33.817Z,2.33
2022-08-03T11:20:13.835Z,3.13
2022-08-03T11:23:01.108Z,2.85
2022-08-03T11:25:53.880Z,3.47
2022-08-03T11:28:28.680Z,2.60
2022-08-03T11:30:55.516Z,2.78
2022-08-03T11:33:31.796Z,1.88
2022-08-03T11:36:02.317Z,2.55
2022-08-03T11:38:29.075Z,4.03
2022-08-03T11:40:55.740Z,2.70
2022-08-03T11:43:22.427Z,2.90
2022-08-03T11:46:28.260Z,2.95
2022-08-03T11:49:09.758Z,3.80
2022-08-03T11:51:37.944Z,4.20
2022-08-03T11:54:06.312Z,1.55
2022-08-03T11:56:47.832Z,3.13
2022-08-03T11:59:20.269Z,4.03
2022-08-03T12:01:47.737Z,4.18
2022-08-03T12:04:16.417Z,3.03
2022-08-03T12:06:58.732Z,1.77
2022-08-03T12:09:25.400Z,2.67
2022-08-03T12:12:00.435Z,2.20
2022-08-03T12:14:50.625Z,2.30
2022-08-03T12:17:16.556Z,1.90
2022-08-03T12:19:44.073Z,2.25
2022-08-03T12:22:10.945Z,5.80
2022-08-03T12:24:46.863Z,2.10
2022-08-03T12:27:23.739Z,2.33
2022-08-03T12:29:58.638Z,2.47
2022-08-03T12:32:26.592Z,2.83
2022-08-03T12:34:53.504Z,2.70
2022-08-03T12:37:23.264Z,1.80
2022-08-03T12:40:02.056Z,2.78
2022-08-03T12:42:37.515Z,2.22
2022-08-03T12:45:23.519Z,1.55
2022-08-03T12:48:01.750Z,2.80
2022-08-03T12:50:33.846Z,2.28
2022-08-03T12:53:04.649Z,2.28
2022-08-03T12:55:40.199Z,3.13
2022-08-03T12:58:36.187Z,2.47
2022-08-03T13:01:09.746Z,2.40
2022-08-03T13:03:55.867Z,1.92
2022-08-03T13:06:26.572Z,2.60
2022-08-03T13:09:07.375Z,2.78
2022-08-03T13:11:55.929Z,1.75
2022-08-03T13:14:23.695Z,2.17
2022-08-03T13:16:50.592Z,1.50
2022-08-03T13:19:17.299Z,2.75
2022-08-03T13:22:01.904Z,1.63
2022-08-03T13:24:32.570Z,2.65
2022-08-03T13:27:00.163Z,2.65
2022-08-03T13:29:26.835Z,1.65
2022-08-03T13:31:53.764Z,2.15
2022-08-03T13:34:23.609Z,2.85
2022-08-03T13:37:09.284Z,2.35
2022-08-03T13:39:57.725Z,1.92
2022-08-03T13:42:23.579Z,3.28
2022-08-03T13:44:50.882Z,2.88
2022-08-03T13:47:17.749Z,1.60
2022-08-03T13:49:56.949Z,2.10
2022-08-03T13:52:29.989Z,1.65
2022-08-03T13:54:56.698Z,2.33
2022-08-03T13:58:04.732Z,2.05
2022-08-03T14:00:12.138Z,2.15
2022-08-03T14:02:38.915Z,1.75
2022-08-03T14:05:05.883Z,1.52
2022-08-03T14:07:32.561Z,2.40
2022-08-03T14:09:59.245Z,2.40
2022-08-03T14:12:25.898Z,2.60
2022-08-03T14:14:52.557Z,1.67
2022-08-03T14:17:19.817Z,2.78
2022-08-03T14:19:53.229Z,1.80
2022-08-03T14:22:20.837Z,2.88
2022-08-03T14:24:47.503Z,2.25
2022-08-03T14:27:15.815Z,1.90
2022-08-03T14:29:42.506Z,3.10
2022-08-03T14:32:12.513Z,2.50
2022-08-03T14:34:40.094Z,2.50
2022-08-03T14:37:06.759Z,1.83
2022-08-03T14:42:20.528Z,2.78
2022-08-03T14:44:47.685Z,2.30
2022-08-03T14:47:14.643Z,1.50
2022-08-03T14:50:31.009Z,2.45
2022-08-03T14:52:28.463Z,1.83
2022-08-03T14:54:55.157Z,1.75
2022-08-03T14:57:22.218Z,2.90
2022-08-03T14:59:56.635Z,1.60
2022-08-03T15:02:25.468Z,1.40
2022-08-03T15:04:52.913Z,4.22
2022-08-03T15:07:20.984Z,2.85
2022-08-03T15:09:48.014Z,2.25
2022-08-03T15:12:14.674Z,3.10
2022-08-03T15:14:41.352Z,2.30
2022-08-03T15:17:08.220Z,1.63
2022-08-03T15:20:01.408Z,2.88
2022-08-03T15:22:25.129Z,1.98
2022-08-03T15:24:52.368Z,3.45
2022-08-03T15:27:19.369Z,2.40
2022-08-03T15:30:09.460Z,1.35
2022-08-03T15:32:34.175Z,1.75
2022-08-03T15:35:01.428Z,2.22
2022-08-03T15:37:28.437Z,1.48
2022-08-03T15:39:59.603Z,2.10
2022-08-03T15:42:31.151Z,1.50
2022-08-03T15:44:58.150Z,2.35
2022-08-03T15:47:24.989Z,1.35
2022-08-03T15:49:51.680Z,1.88
2022-08-03T15:52:18.360Z,1.75
2022-08-03T15:54:44.995Z,1.50
2022-08-03T15:57:11.761Z,2.47
2022-08-03T15:59:38.474Z,1.67
2022-08-03T16:02:05.213Z,1.75
2022-08-03T16:04:31.847Z,3.33
2022-08-03T16:06:58.501Z,2.47
2022-08-03T16:09:43.082Z,3.20
2022-08-03T16:12:14.612Z,1.70
2022-08-03T16:14:52.371Z,2.05
2022-08-03T16:17:20.493Z,2.10
2022-08-03T16:19:47.470Z,2.50
2022-08-03T16:22:14.510Z,2.70
2022-08-03T16:24:41.485Z,2.45
2022-08-03T16:27:37.419Z,2.22
2022-08-03T16:29:55.237Z,2.28
2022-08-03T16:32:21.935Z,1.95
2022-08-03T16:34:48.648Z,2.15
2022-08-03T16:37:37.479Z,3.25
2022-08-03T16:40:03.446Z,3.15
2022-08-03T16:42:30.220Z,2.17
2022-08-03T16:44:56.868Z,5.03
2022-08-03T16:47:23.597Z,1.73
2022-08-03T16:49:53.275Z,2.10
2022-08-03T16:52:23.890Z,2.47
2022-08-03T16:54:53.610Z,5.60
2022-08-03T16:57:29.897Z,2.67
2022-08-03T17:00:33.792Z,2.45
2022-08-03T17:03:04.426Z,2.63
2022-08-03T17:05:47.377Z,3.35
2022-08-03T17:08:27.116Z,2.53
2022-08-03T17:10:54.834Z,2.90
2022-08-03T17:13:22.801Z,2.65
2022-08-03T17:16:01.361Z,2.70
2022-08-03T17:18:35.535Z,2.83
2022-08-03T17:21:05.954Z,2.40
2022-08-03T17:23:45.718Z,2.22
2022-08-03T17:26:21.547Z,2.38
2022-08-03T17:28:57.301Z,2.65
2022-08-03T17:31:31.865Z,3.30
2022-08-03T17:34:01.709Z,3.00
2022-08-03T17:37:01.646Z,2.60
2022-08-03T17:39:30.783Z,3.30
2022-08-03T17:42:31.218Z,3.85
2022-08-03T17:44:55.722Z,2.60
2022-08-03T17:47:23.045Z,2.58
2022-08-03T17:49:56.979Z,3.45
2022-08-03T17:52:34.432Z,3.55
2022-08-03T17:55:55.011Z,2.50
2022-08-03T17:58:15.396Z,3.88
2022-08-03T18:01:05.160Z,2.90
2022-08-03T18:03:59.247Z,4.72
2022-08-03T18:06:37.001Z,3.75
2022-08-03T18:09:05.342Z,2.35
2022-08-03T18:11:58.092Z,3.25
2022-08-03T18:14:38.310Z,2.33
2022-08-03T18:17:15.627Z,3.42
2022-08-03T18:20:01.967Z,2.22
2022-08-03T18:22:32.164Z,3.30
2022-08-03T18:25:07.716Z,2.97
2022-08-03T18:27:45.912Z,2.45
2022-08-03T18:30:15.474Z,2.45
2022-08-03T18:33:00.730Z,3.25
2022-08-03T18:35:52.710Z,2.75
2022-08-03T18:38:18.773Z,3.80
2022-08-03T18:40:48.730Z,3.35
2022-08-03T18:43:17.599Z,3.92
2022-08-03T18:45:57.385Z,3.53
2022-08-03T18:48:49.065Z,2.78
2022-08-03T18:51:28.788Z,3.35
2022-08-03T18:54:45.434Z,3.90
2022-08-03T18:57:18.721Z,2.65
2022-08-03T19:00:17.454Z,4.47
2022-08-03T19:03:02.476Z,3.45
2022-08-03T19:05:49.330Z,3.10
2022-08-03T19:08:33.440Z,2.80
2022-08-03T19:11:05.885Z,3.30
2022-08-03T19:16:42.043Z,3.30
2022-08-03T19:19:11.098Z,2.72
2022-08-03T19:21:44.550Z,2.95
2022-08-03T19:24:13.580Z,4.45
2022-08-03T19:26:42.543Z,2.78
2022-08-03T19:29:16.812Z,3.33
2022-08-03T19:31:59.004Z,2.03
2022-08-03T19:36:55.585Z,2.90
2022-08-03T19:39:24.398Z,4.13
2022-08-03T19:41:56.371Z,3.88
2022-08-03T19:44:29.280Z,2.95
2022-08-03T19:47:11.200Z,3.70
2022-08-03T19:49:59.949Z,3.80
2022-08-03T19:52:35.595Z,3.20
2022-08-03T19:55:12.311Z,4.60
2022-08-03T19:57:42.444Z,4.25
2022-08-03T20:00:13.903Z,3.78
2022-08-03T20:02:41.454Z,4.03
2022-08-03T20:05:12.047Z,3.75
2022-08-03T20:07:47.891Z,3.67
2022-08-03T20:10:16.743Z,4.32
2022-08-03T20:12:44.955Z,2.67
2022-08-03T20:15:12.078Z,5.05
2022-08-03T20:17:57.086Z,3.70
2022-08-03T20:20:32.709Z,4.40
2022-08-03T20:23:06.941Z,6.05
2022-08-03T20:25:48.737Z,3.90
2022-08-03T20:28:35.328Z,4.45
2022-08-03T20:31:25.191Z,3.85
2022-08-03T20:34:00.608Z,5.50
2022-08-03T20:36:27.647Z,6.68
2022-08-03T20:38:57.696Z,6.22
2022-08-03T20:41:25.133Z,5.28
2022-08-03T20:43:51.883Z,4.65
2022-08-03T20:46:29.640Z,5.43
2022-08-03T20:49:06.134Z,5.03
2022-08-03T20:51:50.678Z,5.32
2022-08-03T20:54:28.948Z,4.88
2022-08-03T20:56:57.980Z,5.03
2022-08-03T20:59:36.937Z,5.82
2022-08-03T21:02:19.536Z,7.30
2022-08-03T21:04:56.224Z,6.18
2022-08-03T21:07:24.585Z,5.75
2022-08-03T21:10:13.753Z,3.95
2022-08-03T21:13:14.914Z,5.10
2022-08-03T21:16:02.980Z,4.15
2022-08-03T21:18:37.330Z,6.63
2022-08-03T21:21:06.273Z,4.10
2022-08-03T21:23:48.145Z,6.78
2022-08-03T21:26:23.699Z,5.00
2022-08-03T21:28:52.133Z,4.82
2022-08-03T21:31:24.322Z,4.40
2022-08-03T21:33:57.029Z,4.95
2022-08-03T21:36:28.190Z,6.38
2022-08-03T21:38:57.300Z,4.20
2022-08-03T21:41:26.552Z,5.90
2022-08-03T21:43:53.466Z,5.20
2022-08-03T21:46:21.844Z,4.80
2022-08-03T21:48:54.566Z,4.50
2022-08-03T21:51:24.554Z,4.32
2022-08-03T21:54:02.441Z,5.03
2022-08-03T21:56:42.042Z,4.40
2022-08-03T21:59:16.446Z,4.18
2022-08-03T22:01:45.654Z,4.13
2022-08-03T22:04:55.128Z,4.63
2022-08-03T22:07:05.379Z,3.97
2022-08-03T22:09:34.245Z,4.80
2022-08-03T22:12:00.993Z,4.00
2022-08-03T22:14:27.838Z,5.85
2022-08-03T22:16:55.332Z,4.53
2022-08-03T22:19:22.047Z,4.28
2022-08-03T22:21:49.403Z,4.93
2022-08-03T22:24:24.039Z,5.68
2022-08-03T22:27:09.915Z,5.28
2022-08-03T22:29:39.817Z,4.95
2022-08-03T22:32:06.872Z,4.93
2022-08-03T22:34:34.375Z,3.80
2022-08-03T22:37:03.640Z,5.20
2022-08-03T22:39:31.487Z,4.75
2022-08-03T22:42:01.617Z,4.68
2022-08-03T22:44:28.437Z,3.78
2022-08-03T22:46:56.167Z,4.53
2022-08-03T22:49:22.944Z,4.63
2022-08-03T22:51:52.008Z,3.80
2022-08-03T22:54:19.112Z,4.88
2022-08-03T22:56:50.365Z,6.15
2022-08-03T22:59:41.006Z,4.63
2022-08-03T23:02:15.134Z,3.88
2022-08-03T23:04:51.675Z,6.10
2022-08-03T23:07:30.946Z,4.30
2022-08-03T23:09:58.383Z,5.82
2022-08-03T23:12:25.382Z,5.13
2022-08-03T23:14:55.412Z,5.03
2022-08-03T23:17:23.971Z,4.50
2022-08-03T23:19:52.777Z,5.30
2022-08-03T23:22:30.289Z,5.82
2022-08-03T23:24:58.578Z,6.28
2022-08-03T23:27:27.413Z,4.90
2022-08-03T23:29:54.349Z,5.05
2022-08-03T23:32:21.202Z,4.57
2022-08-03T23:35:09.098Z,4.50
2022-08-03T23:38:03.926Z,4.88
2022-08-03T23:40:29.551Z,5.05
2022-08-03T23:42:58.254Z,5.50
2022-08-03T23:45:27.600Z,4.03
2022-08-03T23:47:54.442Z,6.10
2022-08-03T23:50:21.620Z,4.72
2022-08-03T23:53:15.196Z,5.95
2022-08-03T23:58:48.957Z,5.80
